Metar z połowy godziny Komunikat METAR ze strony awiacja.imgw.pl Metar G30 EPLB METAR EPLB 170830Z 10008KT CAVOK 23/15 Q1019 =